SVA1116 OEJN-OEDF
Flight info
| Callsign | SVA1116 |
|---|---|
| Flight time | 1h 28m |
| Altitude | 37000 |
| Route | EGREP2W/34C EGREP B417 PATOR T532 DAW DCT MUSRI L604 UMENA |
| Aircraft | A21N/M-SDE2E3FGHIRWXY/LB1 |
Departure
| Time | 2026-05-05 11:36 |
|---|---|
| Airport | King Abdulaziz International Airport (OEJN) |
Arrival
| Time | 2026-05-05 13:05 |
|---|---|
| Airport | King Fahd International Airport (OEDF) |
| Time | Latitude | Longitude | Altitude | Speed | Heading |
|---|---|---|---|---|---|
| 2026-05-05 11:35 | 21.66177 | 39.16468 | 33 ft | 0 kts | 340° |
| 2026-05-05 11:36 | 21.66374 | 39.16387 | 34 ft | 62 kts | 340° |
| 2026-05-05 11:36 | 21.66997 | 39.16142 | 35 ft | 127 kts | 340° |
| 2026-05-05 11:36 | 21.68013 | 39.15744 | 165 ft | 177 kts | 339° |
| 2026-05-05 11:36 | 21.69194 | 39.15269 | 862 ft | 172 kts | 338° |
| 2026-05-05 11:37 | 21.70195 | 39.14855 | 1065 ft | 143 kts | 339° |
| 2026-05-05 11:37 | 21.71080 | 39.14484 | 1037 ft | 132 kts | 339° |
| 2026-05-05 11:37 | 21.71879 | 39.14164 | 1061 ft | 140 kts | 339° |
| 2026-05-05 11:37 | 21.72897 | 39.13757 | 1111 ft | 175 kts | 339° |
| 2026-05-05 11:38 | 21.74199 | 39.13229 | 1229 ft | 220 kts | 340° |
| 2026-05-05 11:38 | 21.75690 | 39.12638 | 2015 ft | 237 kts | 340° |
| 2026-05-05 11:38 | 21.77290 | 39.12017 | 2800 ft | 251 kts | 341° |
| 2026-05-05 11:38 | 21.79011 | 39.11474 | 3551 ft | 265 kts | 356° |
| 2026-05-05 11:39 | 21.80873 | 39.11785 | 4135 ft | 285 kts | 23° |
| 2026-05-05 11:39 | 21.82509 | 39.13101 | 4652 ft | 308 kts | 49° |
| 2026-05-05 11:39 | 21.83816 | 39.15018 | 5214 ft | 326 kts | 53° |
| 2026-05-05 11:39 | 21.85133 | 39.17040 | 5809 ft | 341 kts | 53° |
| 2026-05-05 11:40 | 21.86581 | 39.19141 | 6407 ft | 356 kts | 51° |
| 2026-05-05 11:40 | 21.88166 | 39.21249 | 6973 ft | 368 kts | 46° |
| 2026-05-05 11:40 | 21.90208 | 39.22909 | 7724 ft | 371 kts | 25° |
| 2026-05-05 11:40 | 21.92530 | 39.24180 | 8469 ft | 378 kts | 34° |
| 2026-05-05 11:41 | 21.94505 | 39.26078 | 9255 ft | 384 kts | 45° |
| 2026-05-05 11:41 | 21.96336 | 39.28198 | 9988 ft | 389 kts | 48° |
| 2026-05-05 11:41 | 21.98168 | 39.30402 | 10598 ft | 398 kts | 48° |
| 2026-05-05 11:41 | 22.00029 | 39.32644 | 11206 ft | 405 kts | 48° |
| 2026-05-05 11:42 | 22.01907 | 39.34880 | 11899 ft | 409 kts | 47° |
| 2026-05-05 11:42 | 22.03848 | 39.37153 | 12567 ft | 414 kts | 47° |
| 2026-05-05 11:42 | 22.05835 | 39.39440 | 13229 ft | 419 kts | 47° |
| 2026-05-05 11:42 | 22.07859 | 39.41734 | 13855 ft | 424 kts | 46° |
| 2026-05-05 11:43 | 22.09912 | 39.44031 | 14466 ft | 428 kts | 46° |
| 2026-05-05 11:43 | 22.11994 | 39.46339 | 15079 ft | 431 kts | 46° |
| 2026-05-05 11:43 | 22.14105 | 39.48659 | 15697 ft | 435 kts | 45° |
| 2026-05-05 11:43 | 22.16241 | 39.50992 | 16315 ft | 438 kts | 45° |
| 2026-05-05 11:44 | 22.18378 | 39.53314 | 16884 ft | 442 kts | 45° |
| 2026-05-05 11:44 | 22.20555 | 39.55673 | 17491 ft | 445 kts | 45° |
| 2026-05-05 11:44 | 22.22757 | 39.58050 | 18058 ft | 449 kts | 45° |
| 2026-05-05 11:44 | 22.24976 | 39.60444 | 18557 ft | 453 kts | 45° |
| 2026-05-05 11:45 | 22.27215 | 39.62858 | 19047 ft | 456 kts | 45° |
| 2026-05-05 11:45 | 22.29470 | 39.65287 | 19509 ft | 460 kts | 45° |
| 2026-05-05 11:45 | 22.31745 | 39.67736 | 19960 ft | 463 kts | 44° |
| 2026-05-05 11:45 | 22.34039 | 39.70201 | 20411 ft | 467 kts | 44° |
| 2026-05-05 11:46 | 22.36354 | 39.72687 | 20874 ft | 471 kts | 44° |
| 2026-05-05 11:46 | 22.38694 | 39.75197 | 21317 ft | 475 kts | 44° |
| 2026-05-05 11:46 | 22.41048 | 39.77720 | 21764 ft | 478 kts | 44° |
| 2026-05-05 11:46 | 22.43394 | 39.80231 | 22197 ft | 482 kts | 44° |
| 2026-05-05 11:47 | 22.45799 | 39.82779 | 22655 ft | 485 kts | 43° |
| 2026-05-05 11:47 | 22.48268 | 39.85268 | 23046 ft | 488 kts | 41° |
| 2026-05-05 11:47 | 22.50802 | 39.87746 | 23420 ft | 492 kts | 40° |
| 2026-05-05 11:47 | 22.53364 | 39.90218 | 23818 ft | 495 kts | 40° |
| 2026-05-05 11:48 | 22.58562 | 39.95196 | 24461 ft | 502 kts | 39° |
| 2026-05-05 11:48 | 22.61188 | 39.97704 | 24793 ft | 506 kts | 39° |
| 2026-05-05 11:48 | 22.63839 | 40.00234 | 25111 ft | 509 kts | 39° |
| 2026-05-05 11:49 | 22.66502 | 40.02777 | 25421 ft | 512 kts | 39° |
| 2026-05-05 11:49 | 22.69179 | 40.05334 | 25721 ft | 516 kts | 39° |
| 2026-05-05 11:49 | 22.71885 | 40.07919 | 26045 ft | 519 kts | 39° |
| 2026-05-05 11:49 | 22.74596 | 40.10510 | 26339 ft | 522 kts | 39° |
| 2026-05-05 11:50 | 22.77327 | 40.13124 | 26718 ft | 523 kts | 39° |
| 2026-05-05 11:50 | 22.80057 | 40.15738 | 27143 ft | 524 kts | 39° |
| 2026-05-05 11:50 | 22.82791 | 40.18360 | 27534 ft | 524 kts | 39° |
| 2026-05-05 11:50 | 22.85523 | 40.20980 | 27952 ft | 525 kts | 39° |
| 2026-05-05 11:51 | 22.88260 | 40.23607 | 28333 ft | 526 kts | 38° |
| 2026-05-05 11:51 | 22.91001 | 40.26239 | 28714 ft | 526 kts | 38° |
| 2026-05-05 11:51 | 22.93749 | 40.28878 | 29091 ft | 527 kts | 38° |
| 2026-05-05 11:51 | 22.96501 | 40.31524 | 29476 ft | 528 kts | 38° |
| 2026-05-05 11:52 | 22.99212 | 40.34131 | 29876 ft | 528 kts | 38° |
| 2026-05-05 11:52 | 23.01962 | 40.36776 | 30219 ft | 529 kts | 38° |
| 2026-05-05 11:52 | 23.04722 | 40.39429 | 30549 ft | 529 kts | 38° |
| 2026-05-05 11:52 | 23.07476 | 40.42077 | 30883 ft | 529 kts | 38° |
| 2026-05-05 11:53 | 23.10230 | 40.44727 | 31208 ft | 529 kts | 38° |
| 2026-05-05 11:53 | 23.13000 | 40.47392 | 31547 ft | 529 kts | 38° |
| 2026-05-05 11:53 | 23.15758 | 40.50049 | 31886 ft | 529 kts | 38° |
| 2026-05-05 11:53 | 23.18517 | 40.52705 | 32230 ft | 529 kts | 38° |
| 2026-05-05 11:54 | 23.21269 | 40.55358 | 32576 ft | 529 kts | 38° |
| 2026-05-05 11:54 | 23.24018 | 40.58005 | 32873 ft | 529 kts | 38° |
| 2026-05-05 11:54 | 23.26639 | 40.60843 | 33143 ft | 535 kts | 50° |
| 2026-05-05 11:54 | 23.28629 | 40.64274 | 33363 ft | 539 kts | 64° |
| 2026-05-05 11:55 | 23.30137 | 40.67951 | 33667 ft | 539 kts | 68° |
| 2026-05-05 11:55 | 23.31526 | 40.71741 | 33978 ft | 538 kts | 69° |
| 2026-05-05 11:55 | 23.32858 | 40.75548 | 34253 ft | 538 kts | 70° |
| 2026-05-05 11:55 | 23.34165 | 40.79366 | 34525 ft | 538 kts | 70° |
| 2026-05-05 11:56 | 23.35458 | 40.83178 | 34788 ft | 537 kts | 70° |
| 2026-05-05 11:56 | 23.36752 | 40.87005 | 35058 ft | 537 kts | 70° |
| 2026-05-05 11:56 | 23.38042 | 40.90820 | 35318 ft | 536 kts | 70° |
| 2026-05-05 11:56 | 23.39333 | 40.94632 | 35570 ft | 536 kts | 70° |
| 2026-05-05 11:57 | 23.40605 | 40.98381 | 35814 ft | 535 kts | 70° |
| 2026-05-05 11:57 | 23.41899 | 41.02186 | 36053 ft | 535 kts | 70° |
| 2026-05-05 11:57 | 23.43192 | 41.05979 | 36294 ft | 534 kts | 70° |
| 2026-05-05 11:57 | 23.44485 | 41.09767 | 36532 ft | 534 kts | 70° |
| 2026-05-05 11:58 | 23.45782 | 41.13561 | 36754 ft | 532 kts | 70° |
| 2026-05-05 11:58 | 23.47071 | 41.17329 | 36881 ft | 526 kts | 70° |
| 2026-05-05 11:58 | 23.49635 | 41.24822 | 36946 ft | 532 kts | 70° |
| 2026-05-05 11:59 | 23.52244 | 41.32443 | 36968 ft | 542 kts | 70° |
| 2026-05-05 11:59 | 23.54902 | 41.40211 | 36963 ft | 552 kts | 70° |
| 2026-05-05 12:00 | 23.57598 | 41.48095 | 36964 ft | 563 kts | 70° |
| 2026-05-05 12:00 | 23.60356 | 41.56167 | 36954 ft | 571 kts | 70° |
| 2026-05-05 12:01 | 23.63106 | 41.64221 | 36952 ft | 561 kts | 70° |
| 2026-05-05 12:01 | 23.65814 | 41.72168 | 36963 ft | 559 kts | 70° |
| 2026-05-05 12:02 | 23.68450 | 41.80165 | 36965 ft | 561 kts | 71° |
| 2026-05-05 12:02 | 23.71029 | 41.88215 | 36964 ft | 561 kts | 72° |
| 2026-05-05 12:03 | 23.73584 | 41.96255 | 36966 ft | 560 kts | 71° |
| 2026-05-05 12:03 | 23.76243 | 42.04255 | 36967 ft | 561 kts | 70° |
| 2026-05-05 12:04 | 23.78942 | 42.12199 | 36964 ft | 562 kts | 70° |
| 2026-05-05 12:04 | 23.81667 | 42.20187 | 36967 ft | 560 kts | 70° |
| 2026-05-05 12:05 | 23.84384 | 42.28152 | 36966 ft | 560 kts | 70° |
| 2026-05-05 12:05 | 23.87102 | 42.36136 | 36970 ft | 561 kts | 70° |
| 2026-05-05 12:06 | 23.89821 | 42.44139 | 36970 ft | 561 kts | 70° |
| 2026-05-05 12:06 | 23.92532 | 42.52138 | 36968 ft | 560 kts | 70° |
| 2026-05-05 12:07 | 23.95230 | 42.60116 | 36973 ft | 560 kts | 70° |
| 2026-05-05 12:07 | 23.97930 | 42.68121 | 36968 ft | 561 kts | 70° |
| 2026-05-05 12:08 | 24.00608 | 42.76073 | 36966 ft | 560 kts | 71° |
| 2026-05-05 12:08 | 24.03293 | 42.84066 | 36973 ft | 560 kts | 71° |
| 2026-05-05 12:09 | 24.05962 | 42.92081 | 36972 ft | 561 kts | 71° |
| 2026-05-05 12:09 | 24.08614 | 43.00112 | 36973 ft | 561 kts | 71° |
| 2026-05-05 12:10 | 24.11258 | 43.08145 | 36962 ft | 560 kts | 71° |
| 2026-05-05 12:10 | 24.13448 | 43.14816 | 36973 ft | 560 kts | 71° |
| 2026-05-05 12:11 | 24.16060 | 43.22787 | 36966 ft | 561 kts | 71° |
| 2026-05-05 12:11 | 24.18691 | 43.30833 | 36968 ft | 560 kts | 71° |
| 2026-05-05 12:12 | 24.21311 | 43.38865 | 36969 ft | 560 kts | 71° |
| 2026-05-05 12:12 | 24.23931 | 43.46912 | 36964 ft | 561 kts | 71° |
| 2026-05-05 12:13 | 24.26532 | 43.54914 | 36965 ft | 560 kts | 71° |
| 2026-05-05 12:13 | 24.29144 | 43.62969 | 36960 ft | 560 kts | 71° |
| 2026-05-05 12:14 | 24.31750 | 43.71020 | 36958 ft | 561 kts | 71° |
| 2026-05-05 12:14 | 24.34357 | 43.79093 | 36950 ft | 561 kts | 71° |
| 2026-05-05 12:15 | 24.36953 | 43.87145 | 36943 ft | 559 kts | 71° |
| 2026-05-05 12:15 | 24.39544 | 43.95204 | 36943 ft | 560 kts | 71° |
| 2026-05-05 12:16 | 24.42135 | 44.03278 | 36935 ft | 561 kts | 71° |
| 2026-05-05 12:16 | 24.44914 | 44.11205 | 36945 ft | 559 kts | 63° |
| 2026-05-05 12:17 | 24.48607 | 44.18733 | 36943 ft | 560 kts | 59° |
| 2026-05-05 12:17 | 24.52487 | 44.26159 | 36941 ft | 561 kts | 59° |
| 2026-05-05 12:18 | 24.56401 | 44.33559 | 36927 ft | 560 kts | 59° |
| 2026-05-05 12:18 | 24.60320 | 44.40955 | 36937 ft | 559 kts | 59° |
| 2026-05-05 12:19 | 24.64233 | 44.48350 | 36935 ft | 560 kts | 59° |
| 2026-05-05 12:19 | 24.68148 | 44.55758 | 36930 ft | 560 kts | 59° |
| 2026-05-05 12:20 | 24.72053 | 44.63162 | 36926 ft | 559 kts | 59° |
| 2026-05-05 12:20 | 24.75949 | 44.70564 | 36922 ft | 559 kts | 59° |
| 2026-05-05 12:21 | 24.79824 | 44.77939 | 36918 ft | 559 kts | 59° |
| 2026-05-05 12:21 | 24.83718 | 44.85362 | 36918 ft | 559 kts | 59° |
| 2026-05-05 12:22 | 24.87588 | 44.92753 | 36919 ft | 559 kts | 59° |
| 2026-05-05 12:22 | 24.91472 | 45.00183 | 36917 ft | 560 kts | 59° |
| 2026-05-05 12:23 | 24.95358 | 45.07629 | 36916 ft | 560 kts | 59° |
| 2026-05-05 12:23 | 24.99241 | 45.15082 | 36908 ft | 561 kts | 59° |
| 2026-05-05 12:24 | 25.03123 | 45.22546 | 36896 ft | 561 kts | 59° |
| 2026-05-05 12:24 | 25.07014 | 45.30037 | 36897 ft | 562 kts | 59° |
| 2026-05-05 12:25 | 25.10891 | 45.37514 | 36889 ft | 561 kts | 59° |
| 2026-05-05 12:25 | 25.14734 | 45.44939 | 36892 ft | 560 kts | 59° |
| 2026-05-05 12:26 | 25.18599 | 45.52418 | 36897 ft | 562 kts | 59° |
| 2026-05-05 12:26 | 25.22470 | 45.59919 | 36893 ft | 562 kts | 59° |
| 2026-05-05 12:27 | 25.26343 | 45.67436 | 36885 ft | 562 kts | 59° |
| 2026-05-05 12:27 | 25.30209 | 45.74956 | 36882 ft | 563 kts | 59° |
| 2026-05-05 12:28 | 25.34075 | 45.82487 | 36881 ft | 563 kts | 59° |
| 2026-05-05 12:28 | 25.37936 | 45.90019 | 36882 ft | 563 kts | 59° |
| 2026-05-05 12:29 | 25.41791 | 45.97553 | 36872 ft | 563 kts | 59° |
| 2026-05-05 12:29 | 25.45650 | 46.05105 | 36862 ft | 563 kts | 59° |
| 2026-05-05 12:30 | 25.49473 | 46.12601 | 36863 ft | 563 kts | 59° |
| 2026-05-05 12:30 | 25.53325 | 46.20165 | 36869 ft | 563 kts | 59° |
| 2026-05-05 12:31 | 25.57172 | 46.27732 | 36864 ft | 564 kts | 59° |
| 2026-05-05 12:31 | 25.61019 | 46.35311 | 36860 ft | 565 kts | 59° |
| 2026-05-05 12:32 | 25.64864 | 46.42899 | 36852 ft | 564 kts | 59° |
| 2026-05-05 12:32 | 25.68678 | 46.50440 | 36855 ft | 564 kts | 59° |
| 2026-05-05 12:33 | 25.72530 | 46.58067 | 36850 ft | 566 kts | 60° |
| 2026-05-05 12:33 | 25.76369 | 46.65681 | 36848 ft | 566 kts | 60° |
| 2026-05-05 12:34 | 25.80204 | 46.73300 | 36843 ft | 565 kts | 60° |
| 2026-05-05 12:34 | 25.84033 | 46.80922 | 36831 ft | 566 kts | 59° |
| 2026-05-05 12:35 | 25.87837 | 46.88504 | 36833 ft | 566 kts | 60° |
| 2026-05-05 12:35 | 25.91670 | 46.96155 | 36821 ft | 566 kts | 60° |
| 2026-05-05 12:36 | 25.95495 | 47.03807 | 36817 ft | 566 kts | 60° |
| 2026-05-05 12:36 | 25.99319 | 47.11470 | 36810 ft | 567 kts | 60° |
| 2026-05-05 12:37 | 26.03139 | 47.19138 | 36803 ft | 567 kts | 60° |
| 2026-05-05 12:37 | 26.06959 | 47.26820 | 36797 ft | 567 kts | 60° |
| 2026-05-05 12:38 | 26.10773 | 47.34503 | 36790 ft | 567 kts | 60° |
| 2026-05-05 12:38 | 26.12657 | 47.38304 | 36619 ft | 568 kts | 60° |
| 2026-05-05 12:38 | 26.14556 | 47.42140 | 36620 ft | 563 kts | 60° |
| 2026-05-05 12:39 | 26.18348 | 47.49807 | 36744 ft | 568 kts | 60° |
| 2026-05-05 12:39 | 26.20264 | 47.53686 | 36060 ft | 579 kts | 60° |
| 2026-05-05 12:39 | 26.22199 | 47.57607 | 35247 ft | 575 kts | 60° |
| 2026-05-05 12:40 | 26.24114 | 47.61494 | 34469 ft | 573 kts | 60° |
| 2026-05-05 12:40 | 26.26009 | 47.65354 | 33663 ft | 552 kts | 61° |
| 2026-05-05 12:40 | 26.27517 | 47.69236 | 32944 ft | 550 kts | 71° |
| 2026-05-05 12:40 | 26.28636 | 47.73334 | 32121 ft | 553 kts | 75° |
| 2026-05-05 12:41 | 26.29611 | 47.77466 | 31352 ft | 547 kts | 76° |
| 2026-05-05 12:41 | 26.30504 | 47.81552 | 30613 ft | 541 kts | 77° |
| 2026-05-05 12:41 | 26.31351 | 47.85611 | 29913 ft | 534 kts | 77° |
| 2026-05-05 12:41 | 26.32169 | 47.89626 | 29098 ft | 528 kts | 78° |
| 2026-05-05 12:42 | 26.32968 | 47.93595 | 28312 ft | 520 kts | 78° |
| 2026-05-05 12:42 | 26.33748 | 47.97496 | 27589 ft | 513 kts | 78° |
| 2026-05-05 12:42 | 26.34507 | 48.01305 | 26889 ft | 505 kts | 78° |
| 2026-05-05 12:42 | 26.35259 | 48.05049 | 26180 ft | 477 kts | 78° |
| 2026-05-05 12:43 | 26.35986 | 48.08645 | 25596 ft | 479 kts | 78° |
| 2026-05-05 12:43 | 26.36715 | 48.12246 | 24998 ft | 473 kts | 78° |
| 2026-05-05 12:43 | 26.37434 | 48.15795 | 24418 ft | 465 kts | 78° |
| 2026-05-05 12:43 | 26.38140 | 48.19288 | 23871 ft | 457 kts | 78° |
| 2026-05-05 12:44 | 26.38832 | 48.22710 | 23335 ft | 449 kts | 78° |
| 2026-05-05 12:44 | 26.39512 | 48.26080 | 22724 ft | 441 kts | 78° |
| 2026-05-05 12:44 | 26.40177 | 48.29387 | 22140 ft | 433 kts | 78° |
| 2026-05-05 12:44 | 26.40829 | 48.32646 | 21583 ft | 426 kts | 78° |
| 2026-05-05 12:45 | 26.41467 | 48.35840 | 21051 ft | 421 kts | 78° |
| 2026-05-05 12:45 | 26.42105 | 48.39038 | 20527 ft | 420 kts | 78° |
| 2026-05-05 12:45 | 26.42732 | 48.42190 | 20040 ft | 411 kts | 78° |
| 2026-05-05 12:45 | 26.43344 | 48.45272 | 19578 ft | 403 kts | 78° |
| 2026-05-05 12:46 | 26.43946 | 48.48298 | 19134 ft | 395 kts | 78° |
| 2026-05-05 12:46 | 26.44536 | 48.51269 | 18714 ft | 391 kts | 77° |
| 2026-05-05 12:46 | 26.45126 | 48.54242 | 18306 ft | 393 kts | 77° |
| 2026-05-05 12:46 | 26.45711 | 48.57189 | 17894 ft | 393 kts | 77° |
| 2026-05-05 12:47 | 26.46301 | 48.60146 | 17447 ft | 389 kts | 77° |
| 2026-05-05 12:47 | 26.46813 | 48.63094 | 17062 ft | 383 kts | 86° |
| 2026-05-05 12:47 | 26.46884 | 48.66053 | 16891 ft | 381 kts | 92° |
| 2026-05-05 12:47 | 26.46775 | 48.69019 | 16716 ft | 382 kts | 95° |
| 2026-05-05 12:48 | 26.46586 | 48.71972 | 16432 ft | 380 kts | 96° |
| 2026-05-05 12:48 | 26.46352 | 48.74902 | 15871 ft | 377 kts | 97° |
| 2026-05-05 12:48 | 26.46090 | 48.77792 | 15276 ft | 373 kts | 98° |
| 2026-05-05 12:48 | 26.45809 | 48.80657 | 14739 ft | 369 kts | 98° |
| 2026-05-05 12:49 | 26.45517 | 48.83489 | 14181 ft | 365 kts | 99° |
| 2026-05-05 12:49 | 26.45218 | 48.86284 | 13629 ft | 362 kts | 99° |
| 2026-05-05 12:49 | 26.44912 | 48.89060 | 13041 ft | 358 kts | 99° |
| 2026-05-05 12:49 | 26.44605 | 48.91809 | 12462 ft | 355 kts | 99° |
| 2026-05-05 12:50 | 26.44299 | 48.94493 | 11890 ft | 351 kts | 100° |
| 2026-05-05 12:50 | 26.43988 | 48.97182 | 11314 ft | 348 kts | 100° |
| 2026-05-05 12:50 | 26.43679 | 48.99848 | 10892 ft | 341 kts | 100° |
| 2026-05-05 12:50 | 26.43383 | 49.02413 | 10648 ft | 328 kts | 100° |
| 2026-05-05 12:51 | 26.43095 | 49.04893 | 10417 ft | 316 kts | 100° |
| 2026-05-05 12:51 | 26.42818 | 49.07282 | 10126 ft | 307 kts | 100° |
| 2026-05-05 12:51 | 26.42536 | 49.09667 | 9309 ft | 317 kts | 101° |
| 2026-05-05 12:51 | 26.42238 | 49.12146 | 8541 ft | 320 kts | 100° |
| 2026-05-05 12:52 | 26.41951 | 49.14552 | 7345 ft | 319 kts | 100° |
| 2026-05-05 12:52 | 26.41660 | 49.16966 | 7226 ft | 304 kts | 100° |
| 2026-05-05 12:52 | 26.41381 | 49.19323 | 7226 ft | 309 kts | 100° |
| 2026-05-05 12:52 | 26.41100 | 49.21704 | 7228 ft | 309 kts | 100° |
| 2026-05-05 12:53 | 26.40808 | 49.24079 | 7191 ft | 309 kts | 104° |
| 2026-05-05 12:53 | 26.40031 | 49.26272 | 6927 ft | 302 kts | 122° |
| 2026-05-05 12:53 | 26.38919 | 49.28264 | 6669 ft | 301 kts | 126° |
| 2026-05-05 12:53 | 26.37784 | 49.30184 | 6513 ft | 299 kts | 126° |
| 2026-05-05 12:54 | 26.35515 | 49.34052 | 6189 ft | 296 kts | 124° |
| 2026-05-05 12:54 | 26.34364 | 49.35958 | 6021 ft | 297 kts | 126° |
| 2026-05-05 12:54 | 26.33247 | 49.37885 | 5855 ft | 294 kts | 123° |
| 2026-05-05 12:55 | 26.32210 | 49.39835 | 5683 ft | 293 kts | 122° |
| 2026-05-05 12:55 | 26.31202 | 49.41840 | 5298 ft | 298 kts | 121° |
| 2026-05-05 12:55 | 26.30236 | 49.43864 | 4846 ft | 294 kts | 119° |
| 2026-05-05 12:55 | 26.29319 | 49.45886 | 4359 ft | 290 kts | 118° |
| 2026-05-05 12:56 | 26.28464 | 49.47892 | 3936 ft | 283 kts | 116° |
| 2026-05-05 12:56 | 26.27731 | 49.49894 | 3660 ft | 273 kts | 111° |
| 2026-05-05 12:56 | 26.27195 | 49.51924 | 3679 ft | 277 kts | 99° |
| 2026-05-05 12:56 | 26.27081 | 49.54080 | 3686 ft | 281 kts | 92° |
| 2026-05-05 12:57 | 26.27054 | 49.56268 | 3685 ft | 281 kts | 96° |
| 2026-05-05 12:57 | 26.26869 | 49.58447 | 3698 ft | 283 kts | 98° |
| 2026-05-05 12:57 | 26.26735 | 49.59876 | 3703 ft | 280 kts | 97° |
| 2026-05-05 12:57 | 26.26608 | 49.62069 | 3699 ft | 285 kts | 94° |
| 2026-05-05 12:58 | 26.26624 | 49.64246 | 3709 ft | 273 kts | 91° |
| 2026-05-05 12:58 | 26.26631 | 49.66282 | 3705 ft | 253 kts | 94° |
| 2026-05-05 12:58 | 26.26595 | 49.68188 | 3705 ft | 243 kts | 94° |
| 2026-05-05 12:58 | 26.26553 | 49.70090 | 3716 ft | 246 kts | 94° |
| 2026-05-05 12:59 | 26.26515 | 49.71976 | 3703 ft | 243 kts | 94° |
| 2026-05-05 12:59 | 26.26523 | 49.73873 | 3722 ft | 245 kts | 90° |
| 2026-05-05 12:59 | 26.26566 | 49.75767 | 3712 ft | 244 kts | 91° |
| 2026-05-05 13:00 | 26.26686 | 49.79538 | 3664 ft | 248 kts | 88° |
| 2026-05-05 13:00 | 26.26827 | 49.81465 | 3680 ft | 245 kts | 90° |
| 2026-05-05 13:01 | 26.29627 | 49.85263 | 2949 ft | 218 kts | 2° |
| 2026-05-05 13:01 | 26.31035 | 49.84840 | 2802 ft | 205 kts | 335° |
| 2026-05-05 13:01 | 26.32267 | 49.84122 | 2585 ft | 195 kts | 332° |
| 2026-05-05 13:01 | 26.33443 | 49.83420 | 2339 ft | 188 kts | 334° |
| 2026-05-05 13:02 | 26.34608 | 49.82796 | 2106 ft | 183 kts | 338° |
| 2026-05-05 13:02 | 26.35741 | 49.82261 | 1835 ft | 172 kts | 343° |
| 2026-05-05 13:02 | 26.36785 | 49.81868 | 1604 ft | 167 kts | 349° |
| 2026-05-05 13:02 | 26.37924 | 49.81514 | 1452 ft | 171 kts | 352° |
| 2026-05-05 13:03 | 26.39060 | 49.81167 | 1258 ft | 168 kts | 352° |
| 2026-05-05 13:03 | 26.40204 | 49.80822 | 1088 ft | 174 kts | 352° |
| 2026-05-05 13:03 | 26.41362 | 49.80473 | 881 ft | 170 kts | 346° |
| 2026-05-05 13:03 | 26.42449 | 49.80065 | 671 ft | 165 kts | 348° |
| 2026-05-05 13:04 | 26.43545 | 49.79725 | 514 ft | 165 kts | 350° |
| 2026-05-05 13:04 | 26.44664 | 49.79399 | 317 ft | 166 kts | 351° |
| 2026-05-05 13:04 | 26.45773 | 49.79078 | 95 ft | 161 kts | 350° |
| 2026-05-05 13:04 | 26.46735 | 49.78794 | 88 ft | 115 kts | 346° |
| 2026-05-05 13:05 | 26.47299 | 49.78620 | 89 ft | 56 kts | 345° |
| 2026-05-05 13:05 | 26.47644 | 49.78556 | 90 ft | 45 kts | 11° |
| 2026-05-05 13:05 | 26.47909 | 49.78629 | 89 ft | 30 kts | 14° |
| 2026-05-05 13:05 | 26.47978 | 49.78701 | 85 ft | 8 kts | 89° |
| 2026-05-05 13:06 | 26.47937 | 49.78746 | 85 ft | 9 kts | 159° |
| 2026-05-05 13:06 | 26.47868 | 49.78769 | 88 ft | 12 kts | 163° |
| 2026-05-05 13:06 | 26.47789 | 49.78794 | 89 ft | 12 kts | 165° |
| 2026-05-05 13:06 | 26.47709 | 49.78819 | 87 ft | 12 kts | 165° |
| 2026-05-05 13:07 | 26.47629 | 49.78843 | 86 ft | 12 kts | 165° |
| 2026-05-05 13:07 | 26.47555 | 49.78865 | 85 ft | 12 kts | 165° |
| 2026-05-05 13:07 | 26.47486 | 49.78906 | 87 ft | 12 kts | 124° |
| 2026-05-05 13:07 | 26.47493 | 49.78993 | 88 ft | 12 kts | 73° |
| 2026-05-05 13:08 | 26.47509 | 49.79082 | 85 ft | 12 kts | 97° |
| 2026-05-05 13:08 | 26.47446 | 49.79125 | 87 ft | 11 kts | 162° |
| 2026-05-05 13:08 | 26.47358 | 49.79153 | 89 ft | 15 kts | 164° |
| 2026-05-05 13:08 | 26.47255 | 49.79204 | 87 ft | 17 kts | 154° |
| 2026-05-05 13:09 | 26.47141 | 49.79264 | 85 ft | 18 kts | 154° |
| 2026-05-05 13:09 | 26.47026 | 49.79328 | 85 ft | 19 kts | 153° |
| 2026-05-05 13:09 | 26.46911 | 49.79392 | 89 ft | 18 kts | 154° |
| 2026-05-05 13:09 | 26.46826 | 49.79438 | 87 ft | 8 kts | 129° |
| 2026-05-05 13:10 | 26.46826 | 49.79488 | 89 ft | 6 kts | 76° |
| 2026-05-05 13:10 | 26.46832 | 49.79512 | 86 ft | 0 kts | 76° |
| 2026-05-05 13:10 | 26.46832 | 49.79513 | 87 ft | 0 kts | 76° |